Orbital elements of COSMOS 1275 DEB
| Launched | 3 June 1981 |
| Flight ended | – |
| Launch site | Plesetsk Missile and Space Complex, Russia |
| Owner | Commonwealth of Independent States (former USSR) |
| NORAD ID | 18505 |
| Date fetched |
Epoch osculation |
Inc. [°] |
Ecc. | RA asc node [hr] |
Arg Peri. [°] |
Mean anom [°] |
Mean motion [rev/day] |
Abs. mag |
| Date fetched |
Epoch osculation |
Inc. [°] |
Ecc. | RA asc node [hr] |
Arg Peri. [°] |
Mean anom [°] |
Mean motion [rev/day] |
Abs. mag |
| 2026 May 08 17:57 | 2026 May 05 09:16:31 | 83.2849 | 0.00755 | 7.4393 | 84.7596 | 276.2182 | 14.00723 | – |
| 2026 May 07 17:58 | 2026 May 05 09:16:31 | 83.2849 | 0.00755 | 7.4393 | 84.7596 | 276.2182 | 14.00723 | – |
| 2026 May 06 17:57 | 2026 May 05 09:16:31 | 83.2849 | 0.00755 | 7.4393 | 84.7596 | 276.2182 | 14.00723 | – |
| 2026 May 05 17:57 | 2026 May 05 09:16:31 | 83.2849 | 0.00755 | 7.4393 | 84.7596 | 276.2182 | 14.00723 | – |
| 2026 May 04 17:57 | 2026 Apr 30 00:41:40 | 83.2863 | 0.00753 | 7.7025 | 99.9854 | 276.2182 | 14.00723 | – |
| 2026 May 03 17:57 | 2026 Apr 30 00:41:40 | 83.2863 | 0.00753 | 7.7025 | 99.9854 | 276.2182 | 14.00723 | – |
| 2026 May 02 17:57 | 2026 Apr 30 00:41:40 | 83.2863 | 0.00753 | 7.7025 | 99.9854 | 276.2182 | 14.00723 | – |
| 2026 May 01 17:56 | 2026 Apr 30 00:41:40 | 83.2863 | 0.00753 | 7.7025 | 99.9854 | 276.2182 | 14.00723 | – |
| 2026 Apr 30 17:56 | 2026 Apr 30 00:41:40 | 83.2863 | 0.00753 | 7.7025 | 99.9854 | 276.2182 | 14.00723 | – |
| 2026 Apr 29 17:57 | 2026 Apr 23 07:32:12 | 83.2859 | 0.00747 | 8.0319 | 119.2625 | 276.2182 | 14.00723 | – |
| 2026 Apr 28 17:56 | 2026 Apr 23 07:32:12 | 83.2859 | 0.00747 | 8.0319 | 119.2625 | 276.2182 | 14.00723 | – |
| 2026 Apr 27 17:58 | 2026 Apr 23 07:32:12 | 83.2859 | 0.00747 | 8.0319 | 119.2625 | 276.2182 | 14.00723 | – |
| 2026 Apr 26 17:58 | 2026 Apr 23 07:32:12 | 83.2859 | 0.00747 | 8.0319 | 119.2625 | 276.2182 | 14.00723 | – |
| 2026 Apr 25 17:58 | 2026 Apr 23 07:32:12 | 83.2859 | 0.00747 | 8.0319 | 119.2625 | 276.2182 | 14.00723 | – |
| 2026 Apr 24 17:59 | 2026 Apr 23 07:32:12 | 83.2859 | 0.00747 | 8.0319 | 119.2625 | 276.2182 | 14.00723 | – |
| 2026 Apr 23 17:57 | 2026 Apr 19 00:40:07 | 83.2854 | 0.00744 | 8.2421 | 131.5569 | 276.2182 | 14.00723 | – |
| 2026 Apr 22 17:57 | 2026 Apr 19 00:40:07 | 83.2854 | 0.00744 | 8.2421 | 131.5569 | 276.2182 | 14.00723 | – |
| 2026 Apr 21 17:57 | 2026 Apr 19 00:40:07 | 83.2854 | 0.00744 | 8.2421 | 131.5569 | 276.2182 | 14.00723 | – |
| 2026 Apr 20 17:57 | 2026 Apr 19 00:40:07 | 83.2854 | 0.00744 | 8.2421 | 131.5569 | 276.2182 | 14.00723 | – |
| 2026 Apr 19 17:58 | 2026 Apr 19 00:40:07 | 83.2854 | 0.00744 | 8.2421 | 131.5569 | 276.2182 | 14.00723 | – |
| 2026 Apr 18 17:56 | 2026 Apr 13 00:39:06 | 83.2857 | 0.00741 | 8.5365 | 148.7286 | 276.2182 | 14.00723 | – |
| 2026 Apr 16 17:57 | 2026 Apr 13 00:39:06 | 83.2857 | 0.00741 | 8.5365 | 148.7286 | 276.2182 | 14.00723 | – |
| 2026 Apr 14 17:57 | 2026 Apr 13 00:39:06 | 83.2857 | 0.00741 | 8.5365 | 148.7286 | 276.2182 | 14.00723 | – |
| 2026 Apr 13 17:57 | 2026 Apr 13 00:39:06 | 83.2857 | 0.00741 | 8.5365 | 148.7286 | 276.2182 | 14.00723 | – |
| 2026 Apr 12 17:57 | 2026 Apr 04 12:37:29 | 83.2869 | 0.00737 | 8.9535 | 173.0419 | 276.2182 | 14.00723 | – |
| 2026 Apr 11 17:57 | 2026 Apr 04 12:37:29 | 83.2869 | 0.00737 | 8.9535 | 173.0419 | 276.2182 | 14.00723 | – |